sensor_id;sensor_type;location;lat;lon;timestamp;P1;durP1;ratioP1;P2;durP2;ratioP2
846;SDS011;410;48.954;9.474;2023-06-01T00:00:48;4.10;;;3.43;;
846;SDS011;410;48.954;9.474;2023-06-01T00:02:51;6.33;;;3.87;;
846;SDS011;410;48.954;9.474;2023-06-01T00:04:56;6.07;;;3.67;;
846;SDS011;410;48.954;9.474;2023-06-01T00:06:59;3.97;;;3.30;;
846;SDS011;410;48.954;9.474;2023-06-01T00:09:03;4.60;;;3.30;;
846;SDS011;410;48.954;9.474;2023-06-01T00:11:06;4.00;;;3.13;;
846;SDS011;410;48.954;9.474;2023-06-01T00:13:09;5.87;;;3.57;;
846;SDS011;410;48.954;9.474;2023-06-01T00:15:12;4.00;;;2.90;;
846;SDS011;410;48.954;9.474;2023-06-01T00:17:16;6.77;;;3.90;;
846;SDS011;410;48.954;9.474;2023-06-01T00:19:19;4.27;;;3.07;;
846;SDS011;410;48.954;9.474;2023-06-01T00:21:24;4.00;;;3.30;;
846;SDS011;410;48.954;9.474;2023-06-01T00:23:27;5.50;;;3.97;;
846;SDS011;410;48.954;9.474;2023-06-01T00:25:30;4.97;;;3.20;;
846;SDS011;410;48.954;9.474;2023-06-01T00:27:34;5.40;;;3.43;;
846;SDS011;410;48.954;9.474;2023-06-01T00:29:37;4.70;;;3.40;;
846;SDS011;410;48.954;9.474;2023-06-01T00:31:40;4.20;;;3.23;;
846;SDS011;410;48.954;9.474;2023-06-01T00:33:44;4.17;;;3.43;;
846;SDS011;410;48.954;9.474;2023-06-01T00:35:47;4.43;;;3.10;;
846;SDS011;410;48.954;9.474;2023-06-01T00:37:52;4.27;;;3.57;;
846;SDS011;410;48.954;9.474;2023-06-01T00:39:55;4.43;;;3.53;;
846;SDS011;410;48.954;9.474;2023-06-01T00:41:58;4.90;;;3.50;;
846;SDS011;410;48.954;9.474;2023-06-01T00:44:01;5.23;;;3.63;;
846;SDS011;410;48.954;9.474;2023-06-01T00:46:05;4.53;;;3.47;;
846;SDS011;410;48.954;9.474;2023-06-01T00:48:08;6.83;;;3.83;;
846;SDS011;410;48.954;9.474;2023-06-01T00:50:11;5.43;;;3.60;;
846;SDS011;410;48.954;9.474;2023-06-01T00:52:15;4.07;;;3.10;;
846;SDS011;410;48.954;9.474;2023-06-01T00:54:20;5.70;;;3.43;;
846;SDS011;410;48.954;9.474;2023-06-01T00:56:23;4.10;;;3.27;;
846;SDS011;410;48.954;9.474;2023-06-01T00:58:26;5.53;;;3.40;;
846;SDS011;410;48.954;9.474;2023-06-01T01:00:29;5.77;;;3.80;;
846;SDS011;410;48.954;9.474;2023-06-01T01:02:32;4.40;;;3.13;;
846;SDS011;410;48.954;9.474;2023-06-01T01:04:36;3.40;;;2.90;;
846;SDS011;410;48.954;9.474;2023-06-01T01:06:40;4.20;;;3.10;;
846;SDS011;410;48.954;9.474;2023-06-01T01:08:52;4.20;;;3.60;;
846;SDS011;410;48.954;9.474;2023-06-01T01:11:12;4.33;;;3.17;;
846;SDS011;410;48.954;9.474;2023-06-01T01:13:23;4.80;;;2.97;;
846;SDS011;410;48.954;9.474;2023-06-01T01:15:32;6.50;;;3.87;;
846;SDS011;410;48.954;9.474;2023-06-01T01:17:40;4.43;;;3.70;;
846;SDS011;410;48.954;9.474;2023-06-01T01:19:51;5.73;;;3.43;;
846;SDS011;410;48.954;9.474;2023-06-01T01:22:02;4.20;;;3.47;;
846;SDS011;410;48.954;9.474;2023-06-01T01:24:15;3.73;;;3.20;;
846;SDS011;410;48.954;9.474;2023-06-01T01:26:33;4.73;;;3.37;;
846;SDS011;410;48.954;9.474;2023-06-01T01:28:47;5.20;;;3.63;;
846;SDS011;410;48.954;9.474;2023-06-01T01:30:52;4.00;;;3.37;;
846;SDS011;410;48.954;9.474;2023-06-01T01:32:58;6.07;;;3.50;;
846;SDS011;410;48.954;9.474;2023-06-01T01:35:02;3.70;;;3.00;;
846;SDS011;410;48.954;9.474;2023-06-01T01:37:07;6.40;;;3.60;;
846;SDS011;410;48.954;9.474;2023-06-01T01:39:10;4.90;;;3.53;;
846;SDS011;410;48.954;9.474;2023-06-01T01:41:13;4.90;;;3.77;;
846;SDS011;410;48.954;9.474;2023-06-01T01:43:16;3.87;;;3.13;;
846;SDS011;410;48.954;9.474;2023-06-01T01:45:21;5.73;;;4.00;;
846;SDS011;410;48.954;9.474;2023-06-01T01:47:24;5.90;;;4.00;;
846;SDS011;410;48.954;9.474;2023-06-01T01:49:34;5.17;;;3.27;;
846;SDS011;410;48.954;9.474;2023-06-01T01:51:41;6.50;;;4.10;;
846;SDS011;410;48.954;9.474;2023-06-01T01:53:47;3.93;;;3.13;;
846;SDS011;410;48.954;9.474;2023-06-01T01:55:51;4.53;;;3.60;;
846;SDS011;410;48.954;9.474;2023-06-01T01:57:56;5.20;;;3.17;;
846;SDS011;410;48.954;9.474;2023-06-01T02:00:02;5.20;;;3.37;;
846;SDS011;410;48.954;9.474;2023-06-01T02:02:14;5.83;;;3.40;;
846;SDS011;410;48.954;9.474;2023-06-01T02:04:18;6.00;;;3.73;;
846;SDS011;410;48.954;9.474;2023-06-01T02:06:21;5.47;;;3.50;;
846;SDS011;410;48.954;9.474;2023-06-01T02:08:24;6.77;;;3.70;;
846;SDS011;410;48.954;9.474;2023-06-01T02:10:27;5.47;;;4.07;;
846;SDS011;410;48.954;9.474;2023-06-01T02:12:30;5.00;;;3.33;;
846;SDS011;410;48.954;9.474;2023-06-01T02:14:34;4.83;;;3.80;;
846;SDS011;410;48.954;9.474;2023-06-01T02:16:37;4.57;;;3.50;;
846;SDS011;410;48.954;9.474;2023-06-01T02:18:42;4.70;;;3.20;;
846;SDS011;410;48.954;9.474;2023-06-01T02:20:47;5.07;;;3.60;;
846;SDS011;410;48.954;9.474;2023-06-01T02:22:50;4.70;;;3.43;;
846;SDS011;410;48.954;9.474;2023-06-01T02:24:54;3.50;;;3.20;;
846;SDS011;410;48.954;9.474;2023-06-01T02:26:57;5.20;;;3.80;;
846;SDS011;410;48.954;9.474;2023-06-01T02:29:00;4.57;;;3.60;;
846;SDS011;410;48.954;9.474;2023-06-01T02:31:07;4.37;;;3.57;;
846;SDS011;410;48.954;9.474;2023-06-01T02:33:10;5.20;;;3.80;;
846;SDS011;410;48.954;9.474;2023-06-01T02:35:15;5.20;;;3.27;;
846;SDS011;410;48.954;9.474;2023-06-01T02:37:18;4.17;;;3.77;;
846;SDS011;410;48.954;9.474;2023-06-01T02:39:21;4.50;;;3.53;;
846;SDS011;410;48.954;9.474;2023-06-01T02:41:25;5.37;;;3.73;;
846;SDS011;410;48.954;9.474;2023-06-01T02:43:28;4.57;;;4.07;;
846;SDS011;410;48.954;9.474;2023-06-01T02:45:31;5.00;;;3.67;;
846;SDS011;410;48.954;9.474;2023-06-01T02:47:35;4.83;;;4.00;;
846;SDS011;410;48.954;9.474;2023-06-01T02:49:38;6.03;;;3.70;;
846;SDS011;410;48.954;9.474;2023-06-01T02:51:42;4.17;;;3.40;;
846;SDS011;410;48.954;9.474;2023-06-01T02:53:52;5.30;;;3.83;;
846;SDS011;410;48.954;9.474;2023-06-01T02:55:55;6.77;;;4.40;;
846;SDS011;410;48.954;9.474;2023-06-01T02:58:21;5.30;;;4.00;;
846;SDS011;410;48.954;9.474;2023-06-01T03:00:40;4.30;;;3.27;;
846;SDS011;410;48.954;9.474;2023-06-01T03:02:43;6.10;;;3.50;;
846;SDS011;410;48.954;9.474;2023-06-01T03:04:46;3.90;;;3.23;;
846;SDS011;410;48.954;9.474;2023-06-01T03:06:51;4.83;;;3.60;;
846;SDS011;410;48.954;9.474;2023-06-01T03:09:07;4.60;;;3.73;;
846;SDS011;410;48.954;9.474;2023-06-01T03:11:23;5.20;;;3.90;;
846;SDS011;410;48.954;9.474;2023-06-01T03:13:27;4.57;;;3.90;;
846;SDS011;410;48.954;9.474;2023-06-01T03:15:30;5.27;;;3.70;;
846;SDS011;410;48.954;9.474;2023-06-01T03:17:35;5.57;;;3.60;;
846;SDS011;410;48.954;9.474;2023-06-01T03:19:38;5.90;;;3.80;;
846;SDS011;410;48.954;9.474;2023-06-01T03:21:57;4.60;;;3.90;;
846;SDS011;410;48.954;9.474;2023-06-01T03:24:02;5.53;;;4.37;;
846;SDS011;410;48.954;9.474;2023-06-01T03:26:05;6.43;;;4.17;;
846;SDS011;410;48.954;9.474;2023-06-01T03:28:08;6.20;;;4.40;;
846;SDS011;410;48.954;9.474;2023-06-01T03:30:12;7.10;;;4.50;;
846;SDS011;410;48.954;9.474;2023-06-01T03:32:16;4.97;;;4.17;;
846;SDS011;410;48.954;9.474;2023-06-01T03:34:20;6.70;;;4.07;;
846;SDS011;410;48.954;9.474;2023-06-01T03:36:23;6.70;;;4.40;;
846;SDS011;410;48.954;9.474;2023-06-01T03:38:28;4.90;;;3.77;;
846;SDS011;410;48.954;9.474;2023-06-01T03:40:31;6.33;;;4.13;;
846;SDS011;410;48.954;9.474;2023-06-01T03:42:34;5.77;;;4.67;;
846;SDS011;410;48.954;9.474;2023-06-01T03:44:38;6.57;;;4.90;;
846;SDS011;410;48.954;9.474;2023-06-01T03:46:42;6.27;;;4.40;;
846;SDS011;410;48.954;9.474;2023-06-01T03:48:46;6.40;;;4.77;;
846;SDS011;410;48.954;9.474;2023-06-01T03:50:49;7.83;;;4.77;;
846;SDS011;410;48.954;9.474;2023-06-01T03:52:52;7.90;;;5.10;;
846;SDS011;410;48.954;9.474;2023-06-01T03:54:57;5.27;;;3.93;;
846;SDS011;410;48.954;9.474;2023-06-01T03:57:20;5.70;;;4.40;;
846;SDS011;410;48.954;9.474;2023-06-01T03:59:23;5.30;;;4.03;;
846;SDS011;410;48.954;9.474;2023-06-01T04:01:27;6.77;;;4.13;;
846;SDS011;410;48.954;9.474;2023-06-01T04:03:31;6.77;;;4.40;;
846;SDS011;410;48.954;9.474;2023-06-01T04:05:34;5.57;;;4.20;;
846;SDS011;410;48.954;9.474;2023-06-01T04:07:39;6.90;;;4.30;;
846;SDS011;410;48.954;9.474;2023-06-01T04:09:42;5.90;;;4.10;;
846;SDS011;410;48.954;9.474;2023-06-01T04:11:47;7.57;;;4.67;;
846;SDS011;410;48.954;9.474;2023-06-01T04:13:50;7.30;;;5.27;;
846;SDS011;410;48.954;9.474;2023-06-01T04:15:53;7.70;;;4.93;;
846;SDS011;410;48.954;9.474;2023-06-01T04:17:56;5.17;;;4.67;;
846;SDS011;410;48.954;9.474;2023-06-01T04:20:01;10.90;;;5.93;;
846;SDS011;410;48.954;9.474;2023-06-01T04:22:07;7.30;;;5.73;;
846;SDS011;410;48.954;9.474;2023-06-01T04:24:11;8.00;;;5.50;;
846;SDS011;410;48.954;9.474;2023-06-01T04:26:14;7.97;;;5.87;;
846;SDS011;410;48.954;9.474;2023-06-01T04:28:18;6.00;;;4.93;;
846;SDS011;410;48.954;9.474;2023-06-01T04:30:22;6.57;;;5.60;;
846;SDS011;410;48.954;9.474;2023-06-01T04:32:26;8.33;;;5.40;;
846;SDS011;410;48.954;9.474;2023-06-01T04:34:29;7.20;;;4.77;;
846;SDS011;410;48.954;9.474;2023-06-01T04:36:32;7.37;;;5.03;;
846;SDS011;410;48.954;9.474;2023-06-01T04:38:39;7.33;;;5.10;;
846;SDS011;410;48.954;9.474;2023-06-01T04:40:43;7.23;;;5.60;;
846;SDS011;410;48.954;9.474;2023-06-01T04:42:48;6.17;;;5.00;;
846;SDS011;410;48.954;9.474;2023-06-01T04:44:58;7.40;;;5.53;;
846;SDS011;410;48.954;9.474;2023-06-01T04:47:03;8.60;;;5.53;;
846;SDS011;410;48.954;9.474;2023-06-01T04:49:06;6.93;;;5.07;;
846;SDS011;410;48.954;9.474;2023-06-01T04:51:09;6.73;;;5.30;;
846;SDS011;410;48.954;9.474;2023-06-01T04:53:12;7.13;;;5.27;;
846;SDS011;410;48.954;9.474;2023-06-01T04:55:16;7.10;;;5.73;;
846;SDS011;410;48.954;9.474;2023-06-01T04:57:19;7.03;;;5.27;;
846;SDS011;410;48.954;9.474;2023-06-01T04:59:22;7.33;;;5.30;;
846;SDS011;410;48.954;9.474;2023-06-01T05:01:27;6.97;;;5.53;;
846;SDS011;410;48.954;9.474;2023-06-01T05:03:31;7.87;;;6.03;;
846;SDS011;410;48.954;9.474;2023-06-01T05:05:35;8.00;;;6.20;;
846;SDS011;410;48.954;9.474;2023-06-01T05:07:42;8.37;;;5.83;;
846;SDS011;410;48.954;9.474;2023-06-01T05:09:45;6.80;;;6.03;;
846;SDS011;410;48.954;9.474;2023-06-01T05:11:48;7.80;;;6.10;;
846;SDS011;410;48.954;9.474;2023-06-01T05:13:51;7.63;;;6.70;;
846;SDS011;410;48.954;9.474;2023-06-01T05:15:56;7.67;;;6.23;;
846;SDS011;410;48.954;9.474;2023-06-01T05:18:01;7.10;;;5.90;;
846;SDS011;410;48.954;9.474;2023-06-01T05:20:04;7.77;;;6.50;;
846;SDS011;410;48.954;9.474;2023-06-01T05:22:11;7.30;;;6.50;;
846;SDS011;410;48.954;9.474;2023-06-01T05:24:14;7.60;;;6.70;;
846;SDS011;410;48.954;9.474;2023-06-01T05:26:18;8.00;;;6.63;;
846;SDS011;410;48.954;9.474;2023-06-01T05:28:21;7.13;;;6.33;;
846;SDS011;410;48.954;9.474;2023-06-01T05:30:24;8.73;;;6.40;;
846;SDS011;410;48.954;9.474;2023-06-01T05:32:27;7.53;;;6.60;;
846;SDS011;410;48.954;9.474;2023-06-01T05:34:38;8.27;;;6.93;;
846;SDS011;410;48.954;9.474;2023-06-01T05:36:42;7.80;;;5.90;;
846;SDS011;410;48.954;9.474;2023-06-01T05:38:45;9.07;;;6.60;;
846;SDS011;410;48.954;9.474;2023-06-01T05:40:48;7.57;;;6.70;;
846;SDS011;410;48.954;9.474;2023-06-01T05:42:52;8.30;;;6.73;;
846;SDS011;410;48.954;9.474;2023-06-01T05:44:55;7.70;;;6.30;;
846;SDS011;410;48.954;9.474;2023-06-01T05:46:58;8.83;;;6.30;;
846;SDS011;410;48.954;9.474;2023-06-01T05:49:01;7.53;;;6.73;;
846;SDS011;410;48.954;9.474;2023-06-01T05:51:06;10.10;;;6.47;;
846;SDS011;410;48.954;9.474;2023-06-01T05:53:09;8.10;;;6.53;;
846;SDS011;410;48.954;9.474;2023-06-01T05:55:12;6.80;;;6.10;;
846;SDS011;410;48.954;9.474;2023-06-01T05:57:16;9.43;;;6.50;;
846;SDS011;410;48.954;9.474;2023-06-01T05:59:19;7.63;;;6.70;;
846;SDS011;410;48.954;9.474;2023-06-01T06:01:23;6.73;;;5.83;;
846;SDS011;410;48.954;9.474;2023-06-01T06:03:26;9.50;;;5.87;;
846;SDS011;410;48.954;9.474;2023-06-01T06:05:30;9.03;;;6.30;;
846;SDS011;410;48.954;9.474;2023-06-01T06:07:35;10.57;;;6.53;;
846;SDS011;410;48.954;9.474;2023-06-01T06:09:39;7.93;;;7.13;;
846;SDS011;410;48.954;9.474;2023-06-01T06:11:42;7.53;;;6.13;;
846;SDS011;410;48.954;9.474;2023-06-01T06:13:46;8.20;;;6.70;;
846;SDS011;410;48.954;9.474;2023-06-01T06:15:50;7.20;;;6.20;;
846;SDS011;410;48.954;9.474;2023-06-01T06:17:53;11.77;;;6.53;;
846;SDS011;410;48.954;9.474;2023-06-01T06:19:56;7.70;;;5.40;;
846;SDS011;410;48.954;9.474;2023-06-01T06:22:00;6.73;;;5.10;;
846;SDS011;410;48.954;9.474;2023-06-01T06:24:04;8.80;;;6.80;;
846;SDS011;410;48.954;9.474;2023-06-01T06:26:07;6.83;;;5.77;;
846;SDS011;410;48.954;9.474;2023-06-01T06:28:11;8.30;;;5.37;;
846;SDS011;410;48.954;9.474;2023-06-01T06:30:14;7.30;;;5.50;;
846;SDS011;410;48.954;9.474;2023-06-01T06:32:17;6.53;;;5.70;;
846;SDS011;410;48.954;9.474;2023-06-01T06:34:21;7.70;;;5.83;;
846;SDS011;410;48.954;9.474;2023-06-01T06:36:24;6.93;;;5.00;;
846;SDS011;410;48.954;9.474;2023-06-01T06:38:28;6.40;;;5.47;;
846;SDS011;410;48.954;9.474;2023-06-01T06:40:32;6.83;;;5.37;;
846;SDS011;410;48.954;9.474;2023-06-01T06:42:35;5.63;;;4.80;;
846;SDS011;410;48.954;9.474;2023-06-01T06:44:39;6.37;;;5.50;;
846;SDS011;410;48.954;9.474;2023-06-01T06:46:42;6.93;;;5.63;;
846;SDS011;410;48.954;9.474;2023-06-01T06:48:45;5.93;;;4.87;;
846;SDS011;410;48.954;9.474;2023-06-01T06:50:48;7.77;;;5.53;;
846;SDS011;410;48.954;9.474;2023-06-01T06:52:51;6.43;;;4.77;;
846;SDS011;410;48.954;9.474;2023-06-01T06:54:54;5.47;;;4.30;;
846;SDS011;410;48.954;9.474;2023-06-01T06:56:59;5.73;;;4.90;;
846;SDS011;410;48.954;9.474;2023-06-01T06:59:02;4.53;;;3.60;;
846;SDS011;410;48.954;9.474;2023-06-01T07:01:09;5.00;;;3.80;;
846;SDS011;410;48.954;9.474;2023-06-01T07:03:12;6.40;;;3.80;;
846;SDS011;410;48.954;9.474;2023-06-01T07:05:15;4.90;;;4.20;;
846;SDS011;410;48.954;9.474;2023-06-01T07:07:18;5.77;;;4.43;;
846;SDS011;410;48.954;9.474;2023-06-01T07:09:22;4.90;;;3.97;;
846;SDS011;410;48.954;9.474;2023-06-01T07:11:25;4.60;;;3.87;;
846;SDS011;410;48.954;9.474;2023-06-01T07:13:30;3.77;;;3.30;;
846;SDS011;410;48.954;9.474;2023-06-01T07:15:33;5.67;;;4.33;;
846;SDS011;410;48.954;9.474;2023-06-01T07:17:36;7.00;;;4.70;;
846;SDS011;410;48.954;9.474;2023-06-01T07:19:40;5.03;;;4.47;;
846;SDS011;410;48.954;9.474;2023-06-01T07:21:43;4.27;;;3.33;;
846;SDS011;410;48.954;9.474;2023-06-01T07:23:46;4.00;;;3.60;;
846;SDS011;410;48.954;9.474;2023-06-01T07:25:49;5.30;;;3.80;;
846;SDS011;410;48.954;9.474;2023-06-01T07:27:53;5.20;;;3.60;;
846;SDS011;410;48.954;9.474;2023-06-01T07:29:59;3.93;;;3.30;;
846;SDS011;410;48.954;9.474;2023-06-01T07:32:02;5.03;;;3.90;;
846;SDS011;410;48.954;9.474;2023-06-01T07:34:07;4.63;;;3.87;;
846;SDS011;410;48.954;9.474;2023-06-01T07:36:10;4.07;;;3.67;;
846;SDS011;410;48.954;9.474;2023-06-01T07:38:13;6.97;;;4.07;;
846;SDS011;410;48.954;9.474;2023-06-01T07:40:16;4.67;;;3.77;;
846;SDS011;410;48.954;9.474;2023-06-01T07:42:19;11.77;;;4.57;;
846;SDS011;410;48.954;9.474;2023-06-01T07:44:23;4.63;;;3.80;;
846;SDS011;410;48.954;9.474;2023-06-01T07:46:27;3.70;;;3.30;;
846;SDS011;410;48.954;9.474;2023-06-01T07:48:30;4.13;;;3.47;;
846;SDS011;410;48.954;9.474;2023-06-01T07:50:37;4.93;;;4.13;;
846;SDS011;410;48.954;9.474;2023-06-01T07:52:40;7.23;;;4.07;;
846;SDS011;410;48.954;9.474;2023-06-01T07:54:44;7.27;;;3.87;;
846;SDS011;410;48.954;9.474;2023-06-01T07:56:47;5.20;;;4.33;;
846;SDS011;410;48.954;9.474;2023-06-01T07:58:50;5.07;;;3.83;;
846;SDS011;410;48.954;9.474;2023-06-01T08:00:53;4.97;;;3.97;;
846;SDS011;410;48.954;9.474;2023-06-01T08:02:58;6.43;;;4.93;;
846;SDS011;410;48.954;9.474;2023-06-01T08:05:08;4.50;;;3.83;;
846;SDS011;410;48.954;9.474;2023-06-01T08:07:13;4.80;;;3.90;;
846;SDS011;410;48.954;9.474;2023-06-01T08:09:18;4.40;;;4.00;;
846;SDS011;410;48.954;9.474;2023-06-01T08:11:22;6.00;;;4.10;;
846;SDS011;410;48.954;9.474;2023-06-01T08:13:26;5.33;;;4.00;;
846;SDS011;410;48.954;9.474;2023-06-01T08:15:29;5.97;;;4.40;;
846;SDS011;410;48.954;9.474;2023-06-01T08:17:33;7.37;;;4.70;;
846;SDS011;410;48.954;9.474;2023-06-01T08:19:39;5.47;;;4.10;;
846;SDS011;410;48.954;9.474;2023-06-01T08:21:44;4.70;;;3.97;;
846;SDS011;410;48.954;9.474;2023-06-01T08:23:47;6.03;;;4.60;;
846;SDS011;410;48.954;9.474;2023-06-01T08:25:52;6.30;;;4.80;;
846;SDS011;410;48.954;9.474;2023-06-01T08:27:56;5.70;;;4.50;;
846;SDS011;410;48.954;9.474;2023-06-01T08:29:59;6.60;;;4.60;;
846;SDS011;410;48.954;9.474;2023-06-01T08:32:02;5.47;;;4.63;;
846;SDS011;410;48.954;9.474;2023-06-01T08:34:06;6.70;;;4.50;;
846;SDS011;410;48.954;9.474;2023-06-01T08:36:11;6.10;;;4.93;;
846;SDS011;410;48.954;9.474;2023-06-01T08:38:14;5.73;;;4.23;;
846;SDS011;410;48.954;9.474;2023-06-01T08:40:18;6.00;;;4.63;;
846;SDS011;410;48.954;9.474;2023-06-01T08:42:24;5.60;;;3.90;;
846;SDS011;410;48.954;9.474;2023-06-01T08:44:28;6.83;;;4.70;;
846;SDS011;410;48.954;9.474;2023-06-01T08:46:36;8.53;;;4.70;;
846;SDS011;410;48.954;9.474;2023-06-01T08:48:42;4.93;;;4.43;;
846;SDS011;410;48.954;9.474;2023-06-01T08:50:47;6.87;;;5.10;;
846;SDS011;410;48.954;9.474;2023-06-01T08:52:53;4.87;;;4.30;;
846;SDS011;410;48.954;9.474;2023-06-01T08:54:58;8.80;;;4.70;;
846;SDS011;410;48.954;9.474;2023-06-01T08:57:03;5.60;;;4.30;;
846;SDS011;410;48.954;9.474;2023-06-01T08:59:08;6.03;;;4.53;;
846;SDS011;410;48.954;9.474;2023-06-01T09:01:15;6.90;;;4.80;;
846;SDS011;410;48.954;9.474;2023-06-01T09:03:23;5.20;;;4.70;;
846;SDS011;410;48.954;9.474;2023-06-01T09:05:26;6.40;;;5.10;;
846;SDS011;410;48.954;9.474;2023-06-01T09:07:30;5.40;;;4.73;;
846;SDS011;410;48.954;9.474;2023-06-01T09:09:37;7.23;;;4.80;;
846;SDS011;410;48.954;9.474;2023-06-01T09:11:40;6.20;;;5.10;;
846;SDS011;410;48.954;9.474;2023-06-01T09:13:43;6.97;;;5.17;;
846;SDS011;410;48.954;9.474;2023-06-01T09:15:49;5.90;;;5.07;;
846;SDS011;410;48.954;9.474;2023-06-01T09:18:03;6.60;;;5.10;;
846;SDS011;410;48.954;9.474;2023-06-01T09:20:11;5.30;;;4.60;;
846;SDS011;410;48.954;9.474;2023-06-01T09:22:14;6.03;;;4.37;;
846;SDS011;410;48.954;9.474;2023-06-01T09:24:17;6.40;;;5.00;;
846;SDS011;410;48.954;9.474;2023-06-01T09:26:25;5.47;;;4.40;;
846;SDS011;410;48.954;9.474;2023-06-01T09:28:29;7.93;;;5.70;;
846;SDS011;410;48.954;9.474;2023-06-01T09:30:39;5.50;;;4.57;;
846;SDS011;410;48.954;9.474;2023-06-01T09:32:43;5.13;;;4.63;;
846;SDS011;410;48.954;9.474;2023-06-01T09:34:52;5.20;;;4.60;;
846;SDS011;410;48.954;9.474;2023-06-01T09:36:56;8.90;;;5.30;;
846;SDS011;410;48.954;9.474;2023-06-01T09:39:00;5.03;;;4.57;;
846;SDS011;410;48.954;9.474;2023-06-01T09:41:04;6.13;;;5.53;;
846;SDS011;410;48.954;9.474;2023-06-01T09:43:21;7.17;;;4.90;;
846;SDS011;410;48.954;9.474;2023-06-01T09:45:24;5.50;;;4.23;;
846;SDS011;410;48.954;9.474;2023-06-01T09:47:28;5.47;;;4.87;;
846;SDS011;410;48.954;9.474;2023-06-01T09:49:32;6.00;;;4.17;;
846;SDS011;410;48.954;9.474;2023-06-01T09:51:38;5.40;;;4.47;;
846;SDS011;410;48.954;9.474;2023-06-01T09:53:41;5.87;;;4.50;;
846;SDS011;410;48.954;9.474;2023-06-01T09:55:57;5.07;;;4.27;;
846;SDS011;410;48.954;9.474;2023-06-01T09:58:16;8.50;;;4.50;;
846;SDS011;410;48.954;9.474;2023-06-01T10:00:23;5.30;;;4.50;;
846;SDS011;410;48.954;9.474;2023-06-01T10:02:27;6.03;;;4.77;;
846;SDS011;410;48.954;9.474;2023-06-01T10:04:33;5.77;;;4.30;;
846;SDS011;410;48.954;9.474;2023-06-01T10:06:38;5.80;;;4.80;;
846;SDS011;410;48.954;9.474;2023-06-01T10:08:42;5.90;;;5.13;;
846;SDS011;410;48.954;9.474;2023-06-01T10:10:47;6.97;;;4.80;;
846;SDS011;410;48.954;9.474;2023-06-01T10:12:51;5.80;;;4.43;;
846;SDS011;410;48.954;9.474;2023-06-01T10:14:55;6.57;;;4.60;;
846;SDS011;410;48.954;9.474;2023-06-01T10:17:00;5.20;;;3.80;;
846;SDS011;410;48.954;9.474;2023-06-01T10:19:03;5.17;;;3.90;;
846;SDS011;410;48.954;9.474;2023-06-01T10:21:07;3.80;;;3.40;;
846;SDS011;410;48.954;9.474;2023-06-01T10:23:11;5.70;;;3.50;;
846;SDS011;410;48.954;9.474;2023-06-01T10:25:32;5.40;;;3.73;;
846;SDS011;410;48.954;9.474;2023-06-01T10:27:38;6.10;;;4.30;;
846;SDS011;410;48.954;9.474;2023-06-01T10:29:45;4.10;;;3.53;;
846;SDS011;410;48.954;9.474;2023-06-01T10:31:48;4.77;;;3.80;;
846;SDS011;410;48.954;9.474;2023-06-01T10:33:54;4.20;;;3.60;;
846;SDS011;410;48.954;9.474;2023-06-01T10:35:57;6.53;;;4.07;;
846;SDS011;410;48.954;9.474;2023-06-01T10:40:28;4.40;;;3.57;;
846;SDS011;410;48.954;9.474;2023-06-01T10:42:38;4.53;;;3.50;;
846;SDS011;410;48.954;9.474;2023-06-01T10:44:45;6.93;;;4.07;;
846;SDS011;410;48.954;9.474;2023-06-01T10:46:48;5.97;;;3.40;;
846;SDS011;410;48.954;9.474;2023-06-01T10:48:54;4.00;;;3.50;;
846;SDS011;410;48.954;9.474;2023-06-01T10:51:16;4.43;;;3.57;;
846;SDS011;410;48.954;9.474;2023-06-01T10:53:23;4.13;;;3.40;;
846;SDS011;410;48.954;9.474;2023-06-01T10:55:27;3.70;;;3.17;;
846;SDS011;410;48.954;9.474;2023-06-01T10:57:30;4.13;;;2.87;;
846;SDS011;410;48.954;9.474;2023-06-01T10:59:34;4.37;;;3.30;;
846;SDS011;410;48.954;9.474;2023-06-01T11:01:37;4.13;;;3.27;;
846;SDS011;410;48.954;9.474;2023-06-01T11:03:41;3.57;;;3.27;;
846;SDS011;410;48.954;9.474;2023-06-01T11:05:48;5.07;;;3.50;;
846;SDS011;410;48.954;9.474;2023-06-01T11:07:52;5.93;;;3.77;;
846;SDS011;410;48.954;9.474;2023-06-01T11:09:56;3.50;;;3.20;;
846;SDS011;410;48.954;9.474;2023-06-01T11:11:59;4.23;;;3.47;;
846;SDS011;410;48.954;9.474;2023-06-01T11:14:10;6.53;;;4.00;;
846;SDS011;410;48.954;9.474;2023-06-01T11:16:27;4.97;;;3.40;;
846;SDS011;410;48.954;9.474;2023-06-01T11:18:43;5.57;;;3.80;;
846;SDS011;410;48.954;9.474;2023-06-01T11:20:49;4.00;;;2.90;;
846;SDS011;410;48.954;9.474;2023-06-01T11:22:53;5.53;;;3.43;;
846;SDS011;410;48.954;9.474;2023-06-01T11:24:58;5.70;;;3.90;;
846;SDS011;410;48.954;9.474;2023-06-01T11:27:04;9.03;;;3.50;;
846;SDS011;410;48.954;9.474;2023-06-01T11:29:09;4.40;;;3.73;;
846;SDS011;410;48.954;9.474;2023-06-01T11:31:15;4.47;;;3.30;;
846;SDS011;410;48.954;9.474;2023-06-01T11:33:19;4.53;;;3.77;;
846;SDS011;410;48.954;9.474;2023-06-01T11:35:22;5.57;;;3.50;;
846;SDS011;410;48.954;9.474;2023-06-01T11:37:29;4.35;;;3.33;;
846;SDS011;410;48.954;9.474;2023-06-01T11:39:33;4.10;;;3.40;;
846;SDS011;410;48.954;9.474;2023-06-01T11:41:36;5.50;;;3.10;;
846;SDS011;410;48.954;9.474;2023-06-01T11:43:39;4.60;;;3.70;;
846;SDS011;410;48.954;9.474;2023-06-01T11:45:43;3.40;;;2.73;;
846;SDS011;410;48.954;9.474;2023-06-01T11:47:46;4.70;;;3.00;;
846;SDS011;410;48.954;9.474;2023-06-01T11:49:50;4.50;;;2.80;;
846;SDS011;410;48.954;9.474;2023-06-01T11:51:53;4.80;;;3.37;;
846;SDS011;410;48.954;9.474;2023-06-01T11:53:58;4.23;;;3.27;;
846;SDS011;410;48.954;9.474;2023-06-01T11:56:03;3.90;;;3.17;;
846;SDS011;410;48.954;9.474;2023-06-01T11:58:07;4.30;;;3.77;;
846;SDS011;410;48.954;9.474;2023-06-01T12:00:11;3.73;;;3.33;;
846;SDS011;410;48.954;9.474;2023-06-01T12:02:19;3.63;;;3.03;;
846;SDS011;410;48.954;9.474;2023-06-01T12:04:23;4.93;;;3.17;;
846;SDS011;410;48.954;9.474;2023-06-01T12:06:28;3.10;;;2.80;;
846;SDS011;410;48.954;9.474;2023-06-01T12:08:31;12.03;;;3.30;;
846;SDS011;410;48.954;9.474;2023-06-01T12:10:35;3.30;;;2.70;;
846;SDS011;410;48.954;9.474;2023-06-01T12:12:39;4.60;;;3.40;;
846;SDS011;410;48.954;9.474;2023-06-01T12:14:42;4.47;;;3.00;;
846;SDS011;410;48.954;9.474;2023-06-01T12:16:52;3.93;;;3.00;;
846;SDS011;410;48.954;9.474;2023-06-01T12:18:57;3.63;;;3.00;;
846;SDS011;410;48.954;9.474;2023-06-01T12:21:07;5.10;;;2.90;;
846;SDS011;410;48.954;9.474;2023-06-01T12:23:12;3.60;;;2.80;;
846;SDS011;410;48.954;9.474;2023-06-01T12:25:18;4.07;;;3.00;;
846;SDS011;410;48.954;9.474;2023-06-01T12:27:22;5.70;;;3.50;;
846;SDS011;410;48.954;9.474;2023-06-01T12:29:37;5.23;;;3.30;;
846;SDS011;410;48.954;9.474;2023-06-01T12:31:52;4.17;;;3.27;;
846;SDS011;410;48.954;9.474;2023-06-01T12:33:56;6.93;;;3.10;;
846;SDS011;410;48.954;9.474;2023-06-01T12:35:59;4.53;;;3.17;;
846;SDS011;410;48.954;9.474;2023-06-01T12:38:07;3.50;;;2.30;;
846;SDS011;410;48.954;9.474;2023-06-01T12:40:21;3.80;;;2.90;;
846;SDS011;410;48.954;9.474;2023-06-01T12:42:38;3.03;;;2.70;;
846;SDS011;410;48.954;9.474;2023-06-01T12:44:44;4.60;;;2.80;;
846;SDS011;410;48.954;9.474;2023-06-01T12:46:47;3.23;;;2.67;;
846;SDS011;410;48.954;9.474;2023-06-01T12:49:11;4.03;;;3.00;;
846;SDS011;410;48.954;9.474;2023-06-01T12:51:15;3.33;;;3.00;;
846;SDS011;410;48.954;9.474;2023-06-01T12:53:19;4.13;;;2.60;;
846;SDS011;410;48.954;9.474;2023-06-01T12:55:22;4.03;;;2.97;;
846;SDS011;410;48.954;9.474;2023-06-01T12:57:25;3.47;;;2.60;;
846;SDS011;410;48.954;9.474;2023-06-01T12:59:30;4.13;;;2.80;;
846;SDS011;410;48.954;9.474;2023-06-01T13:01:33;4.27;;;2.63;;
846;SDS011;410;48.954;9.474;2023-06-01T13:03:37;3.43;;;2.83;;
846;SDS011;410;48.954;9.474;2023-06-01T13:05:41;3.97;;;3.10;;
846;SDS011;410;48.954;9.474;2023-06-01T13:07:47;3.83;;;2.40;;
846;SDS011;410;48.954;9.474;2023-06-01T13:09:50;3.70;;;2.73;;
846;SDS011;410;48.954;9.474;2023-06-01T13:11:53;3.30;;;3.00;;
846;SDS011;410;48.954;9.474;2023-06-01T13:13:56;4.40;;;2.90;;
846;SDS011;410;48.954;9.474;2023-06-01T13:16:01;3.37;;;2.70;;
846;SDS011;410;48.954;9.474;2023-06-01T13:18:05;4.87;;;3.80;;
846;SDS011;410;48.954;9.474;2023-06-01T13:20:09;3.73;;;2.90;;
846;SDS011;410;48.954;9.474;2023-06-01T13:22:13;2.90;;;2.40;;
846;SDS011;410;48.954;9.474;2023-06-01T13:24:17;3.23;;;2.93;;